createdAt,value
2023-07-11T00:00:23.051Z,99.90
2023-07-11T00:02:53.731Z,99.90
2023-07-11T00:05:22.352Z,99.90
2023-07-11T00:07:50.870Z,99.90
2023-07-11T00:10:21.425Z,99.90
2023-07-11T00:12:50.001Z,99.90
2023-07-11T00:15:19.523Z,99.90
2023-07-11T00:17:50.413Z,99.90
2023-07-11T00:20:21.057Z,99.90
2023-07-11T00:22:49.858Z,99.90
2023-07-11T00:25:18.521Z,99.90
2023-07-11T00:27:47.019Z,99.90
2023-07-11T00:30:15.594Z,99.90
2023-07-11T00:32:44.111Z,99.90
2023-07-11T00:35:12.863Z,99.90
2023-07-11T00:37:42.731Z,99.90
2023-07-11T00:40:13.541Z,99.90
2023-07-11T00:42:43.910Z,99.90
2023-07-11T00:46:04.217Z,99.90
2023-07-11T00:48:37.177Z,99.90
2023-07-11T00:51:08.117Z,99.90
2023-07-11T00:53:41.497Z,99.90
2023-07-11T00:56:13.637Z,99.90
2023-07-11T00:58:44.234Z,99.90
2023-07-11T01:01:14.129Z,99.90
2023-07-11T01:03:42.719Z,99.90
2023-07-11T01:06:14.621Z,99.90
2023-07-11T01:08:45.943Z,99.90
2023-07-11T01:11:15.414Z,99.90
2023-07-11T01:13:44.055Z,99.90
2023-07-11T01:16:12.688Z,99.90
2023-07-11T01:18:41.564Z,99.90
2023-07-11T01:21:10.692Z,99.90
2023-07-11T01:23:40.602Z,99.90
2023-07-11T01:26:13.128Z,99.90
2023-07-11T01:28:42.659Z,99.90
2023-07-11T01:31:11.322Z,99.90
2023-07-11T01:33:39.841Z,99.90
2023-07-11T01:36:09.364Z,99.90
2023-07-11T01:38:40.087Z,99.90
2023-07-11T01:41:08.842Z,99.90
2023-07-11T01:43:38.672Z,99.90
2023-07-11T01:46:07.401Z,99.90
2023-07-11T01:48:36.188Z,99.90
2023-07-11T01:51:04.934Z,99.90
2023-07-11T01:53:33.739Z,99.90
2023-07-11T01:56:06.435Z,99.90
2023-07-11T01:58:35.583Z,99.90
2023-07-11T02:01:04.179Z,99.90
2023-07-11T02:03:33.051Z,99.90
2023-07-11T02:06:01.689Z,99.90
2023-07-11T02:08:30.199Z,99.90
2023-07-11T02:10:58.705Z,99.90
2023-07-11T02:13:28.665Z,99.90
2023-07-11T02:15:57.203Z,99.90
2023-07-11T02:18:25.914Z,99.90
2023-07-11T02:20:58.522Z,99.90
2023-07-11T02:23:27.148Z,99.90
2023-07-11T02:25:56.261Z,99.90
2023-07-11T02:28:25.047Z,99.90
2023-07-11T02:30:54.982Z,99.90
2023-07-11T02:33:23.520Z,99.90
2023-07-11T02:35:52.057Z,99.90
2023-07-11T02:38:20.737Z,99.90
2023-07-11T02:40:49.252Z,99.90
2023-07-11T02:43:18.174Z,99.90
2023-07-11T02:45:46.934Z,99.90
2023-07-11T02:48:16.853Z,99.90
2023-07-11T02:50:45.904Z,99.90
2023-07-11T02:53:14.539Z,99.90
2023-07-11T02:55:43.305Z,99.90
2023-07-11T02:58:11.857Z,99.90
2023-07-11T03:00:40.543Z,99.90
2023-07-11T03:03:09.061Z,99.90
2023-07-11T03:05:45.957Z,99.90
2023-07-11T03:08:15.075Z,99.90
2023-07-11T03:10:44.400Z,99.90
2023-07-11T03:13:13.565Z,99.90
2023-07-11T03:15:42.606Z,99.90
2023-07-11T03:18:12.807Z,99.90
2023-07-11T03:20:42.645Z,99.90
2023-07-11T03:23:15.299Z,99.90
2023-07-11T03:25:44.348Z,99.90
2023-07-11T03:28:12.826Z,99.90
2023-07-11T03:30:41.329Z,99.90
2023-07-11T03:33:10.811Z,99.90
2023-07-11T03:35:39.941Z,99.90
2023-07-11T03:38:08.580Z,99.90
2023-07-11T03:40:38.468Z,99.90
2023-07-11T03:43:06.921Z,99.90
2023-07-11T03:45:35.645Z,99.90
2023-07-11T03:48:04.241Z,99.90
2023-07-11T03:50:32.822Z,99.90
2023-07-11T03:53:01.358Z,99.90
2023-07-11T03:55:29.840Z,99.90
2023-07-11T03:57:59.977Z,99.90
2023-07-11T04:00:28.576Z,99.90
2023-07-11T04:02:59.782Z,99.90
2023-07-11T04:05:28.436Z,99.90
2023-07-11T04:07:56.938Z,99.90
2023-07-11T04:10:25.586Z,99.90
2023-07-11T04:12:54.289Z,99.90
2023-07-11T04:15:24.176Z,99.90
2023-07-11T04:17:52.733Z,99.90
2023-07-11T04:20:21.617Z,99.90
2023-07-11T04:22:50.144Z,99.90
2023-07-11T04:25:18.866Z,99.90
2023-07-11T04:27:47.403Z,99.90
2023-07-11T04:30:16.601Z,99.90
2023-07-11T04:32:46.493Z,99.90
2023-07-11T04:35:16.327Z,99.90
2023-07-11T04:37:45.021Z,99.90
2023-07-11T04:40:13.475Z,99.90
2023-07-11T04:42:41.984Z,99.90
2023-07-11T04:45:12.249Z,99.90
2023-07-11T04:47:41.075Z,99.90
2023-07-11T04:50:11.839Z,99.90
2023-07-11T04:52:40.614Z,99.90
2023-07-11T04:55:10.275Z,99.90
2023-07-11T04:57:39.012Z,99.90
2023-07-11T05:00:09.485Z,99.90
2023-07-11T05:02:38.656Z,99.90
2023-07-11T05:05:08.449Z,99.90
2023-07-11T05:07:38.575Z,99.90
2023-07-11T05:10:09.123Z,99.90
2023-07-11T05:12:37.839Z,99.90
2023-07-11T05:15:08.532Z,99.90
2023-07-11T05:17:37.194Z,99.90
2023-07-11T05:20:07.191Z,99.90
2023-07-11T05:22:37.298Z,99.90
2023-07-11T05:25:10.468Z,99.90
2023-07-11T05:27:39.495Z,99.90
2023-07-11T05:30:10.887Z,99.90
2023-07-11T05:32:39.460Z,99.90
2023-07-11T05:35:09.175Z,99.90
2023-07-11T05:37:39.402Z,99.90
2023-07-11T05:40:10.258Z,99.90
2023-07-11T05:42:39.006Z,99.90
2023-07-11T05:45:09.105Z,99.90
2023-07-11T05:47:37.619Z,99.90
2023-07-11T05:50:07.794Z,99.90
2023-07-11T05:52:36.303Z,99.90
2023-07-11T05:55:07.123Z,99.90
2023-07-11T05:57:36.445Z,99.90
2023-07-11T06:00:06.299Z,99.90
2023-07-11T06:02:34.862Z,99.90
2023-07-11T06:05:03.421Z,99.90
2023-07-11T06:07:33.153Z,99.90
2023-07-11T06:10:01.657Z,99.90
2023-07-11T06:12:31.577Z,99.90
2023-07-11T06:15:00.070Z,99.90
2023-07-11T06:17:28.681Z,99.90
2023-07-11T06:19:57.516Z,99.90
2023-07-11T06:22:26.112Z,99.90
2023-07-11T06:24:54.629Z,99.90
2023-07-11T06:27:23.117Z,99.90
2023-07-11T06:29:53.629Z,99.90
2023-07-11T06:32:22.229Z,99.90
2023-07-11T06:34:50.887Z,99.90
2023-07-11T06:37:19.393Z,99.90
2023-07-11T06:39:48.313Z,99.90
2023-07-11T06:42:17.247Z,99.90
2023-07-11T06:44:45.984Z,99.90
2023-07-11T06:47:16.148Z,99.90
2023-07-11T06:49:45.559Z,99.90
2023-07-11T06:52:14.154Z,99.90
2023-07-11T06:54:42.919Z,99.90
2023-07-11T06:57:11.463Z,99.90
2023-07-11T06:59:39.971Z,99.90
2023-07-11T07:02:09.792Z,99.90
2023-07-11T07:04:39.775Z,99.90
2023-07-11T07:07:08.353Z,99.90
2023-07-11T07:09:37.020Z,99.90
2023-07-11T07:12:07.215Z,99.90
2023-07-11T07:14:35.751Z,99.90
2023-07-11T07:17:04.735Z,99.90
2023-07-11T07:19:33.247Z,99.90
2023-07-11T07:22:03.540Z,99.90
2023-07-11T07:24:32.053Z,99.90
2023-07-11T07:27:00.793Z,99.90
2023-07-11T07:29:29.288Z,99.90
2023-07-11T07:31:57.988Z,99.90
2023-07-11T07:34:28.030Z,99.90
2023-07-11T07:36:59.195Z,99.90
2023-07-11T07:39:29.079Z,99.90
2023-07-11T07:41:57.884Z,99.90
2023-07-11T07:44:26.392Z,99.90
2023-07-11T07:46:54.998Z,99.90
2023-07-11T07:49:23.910Z,99.90
2023-07-11T07:51:54.740Z,99.90
2023-07-11T07:54:23.477Z,99.90
2023-07-11T07:56:53.332Z,99.90
2023-07-11T07:59:21.862Z,99.90
2023-07-11T08:01:50.496Z,99.90
2023-07-11T08:04:19.217Z,99.90
2023-07-11T08:06:48.782Z,99.50
2023-07-11T08:09:20.012Z,99.40
2023-07-11T08:11:48.536Z,99.90
2023-07-11T08:14:18.667Z,99.90
2023-07-11T08:16:47.251Z,99.60
2023-07-11T08:19:15.813Z,99.90
2023-07-11T08:21:44.499Z,97.30
2023-07-11T08:24:14.203Z,93.80
2023-07-11T08:26:44.098Z,86.20
2023-07-11T08:29:28.021Z,95.90
2023-07-11T08:31:59.942Z,93.90
2023-07-11T08:34:28.495Z,92.40
2023-07-11T08:36:57.007Z,92.50
2023-07-11T08:39:25.516Z,85.30
2023-07-11T08:41:56.678Z,84.60
2023-07-11T08:44:33.865Z,92.80
2023-07-11T08:47:09.306Z,93.10
2023-07-11T08:49:45.526Z,90.50
2023-07-11T08:52:16.389Z,89.00
2023-07-11T08:54:57.300Z,92.00
2023-07-11T08:57:30.763Z,91.30
2023-07-11T09:00:06.974Z,94.80
2023-07-11T09:02:48.096Z,91.80
2023-07-11T09:05:22.032Z,86.50
2023-07-11T09:07:54.570Z,91.90
2023-07-11T09:10:48.874Z,90.00
2023-07-11T09:13:49.700Z,78.40
2023-07-11T09:16:33.033Z,86.20
2023-07-11T09:19:16.853Z,89.70
2023-07-11T09:21:54.816Z,92.10
2023-07-11T09:24:33.440Z,84.60
2023-07-11T09:27:08.136Z,96.90
2023-07-11T09:29:37.903Z,98.20
2023-07-11T09:32:10.694Z,90.80
2023-07-11T09:34:45.353Z,86.30
2023-07-11T09:37:25.933Z,86.50
2023-07-11T09:40:01.090Z,98.50
2023-07-11T09:42:43.249Z,99.90
2023-07-11T09:45:15.363Z,98.80
2023-07-11T09:47:49.808Z,99.40
2023-07-11T09:50:46.567Z,99.90
2023-07-11T09:53:21.072Z,97.40
2023-07-11T09:56:10.577Z,96.50
2023-07-11T09:58:40.490Z,96.60
2023-07-11T10:01:19.478Z,94.50
2023-07-11T10:03:49.832Z,92.40
2023-07-11T10:09:19.230Z,74.00
2023-07-11T10:11:56.325Z,70.90
2023-07-11T10:14:31.001Z,68.90
2023-07-11T10:17:00.507Z,70.50
2023-07-11T10:19:32.784Z,62.50
2023-07-11T10:22:03.915Z,65.20
2023-07-11T10:24:39.879Z,64.70
2023-07-11T10:27:15.220Z,68.60
2023-07-11T10:29:49.440Z,66.40
2023-07-11T10:32:28.443Z,71.80
2023-07-11T10:35:00.370Z,75.40
2023-07-11T10:37:40.837Z,72.60
2023-07-11T10:40:19.380Z,70.00
2023-07-11T10:42:59.061Z,62.10
2023-07-11T10:45:30.099Z,59.40
2023-07-11T10:48:06.887Z,63.20
2023-07-11T10:50:41.829Z,62.60
2023-07-11T10:53:24.097Z,64.40
2023-07-11T10:56:03.078Z,61.40
2023-07-11T10:58:31.826Z,63.00
2023-07-11T11:01:15.000Z,62.10
2023-07-11T11:03:47.311Z,55.70
2023-07-11T11:06:34.053Z,60.70
2023-07-11T11:09:13.852Z,59.80
2023-07-11T11:11:57.534Z,58.80
2023-07-11T11:14:35.368Z,61.80
2023-07-11T11:17:25.446Z,56.30
2023-07-11T11:20:10.476Z,51.50
2023-07-11T11:22:56.269Z,51.30
2023-07-11T11:25:31.934Z,51.50
2023-07-11T11:28:16.238Z,53.90
2023-07-11T11:30:56.184Z,52.30
2023-07-11T11:33:47.214Z,46.70
2023-07-11T11:36:26.381Z,47.70
2023-07-11T11:39:14.968Z,50.80
2023-07-11T11:41:47.817Z,52.90
2023-07-11T11:46:55.377Z,48.40
2023-07-11T11:51:58.695Z,48.40
2023-07-11T11:54:27.686Z,43.70
2023-07-11T11:57:00.628Z,42.40
2023-07-11T11:59:30.572Z,44.10
2023-07-11T12:02:05.782Z,44.80
2023-07-11T12:05:00.893Z,44.70
2023-07-11T12:07:45.051Z,39.80
2023-07-11T12:10:23.342Z,44.00
2023-07-11T12:13:08.704Z,45.80
2023-07-11T12:15:41.089Z,45.10
2023-07-11T12:18:42.729Z,43.80
2023-07-11T12:21:37.147Z,50.50
2023-07-11T12:27:00.350Z,42.00
2023-07-11T12:29:42.059Z,46.00
2023-07-11T12:32:43.245Z,40.40
2023-07-11T12:35:20.381Z,41.90
2023-07-11T12:38:08.551Z,43.40
2023-07-11T12:40:43.893Z,39.90
2023-07-11T12:43:20.824Z,38.50
2023-07-11T12:45:56.228Z,40.10
2023-07-11T12:48:28.741Z,40.80
2023-07-11T12:51:00.487Z,43.80
2023-07-11T12:53:30.286Z,39.70
2023-07-11T12:55:58.953Z,40.20
2023-07-11T12:58:30.437Z,39.10
2023-07-11T13:01:01.796Z,37.40
2023-07-11T13:03:34.259Z,36.50
2023-07-11T13:06:21.151Z,39.70
2023-07-11T13:08:52.329Z,42.20
2023-07-11T13:11:24.388Z,37.00
2023-07-11T13:13:54.621Z,33.70
2023-07-11T13:16:31.663Z,35.10
2023-07-11T13:19:03.447Z,34.30
2023-07-11T13:21:32.274Z,34.90
2023-07-11T13:24:01.783Z,33.80
2023-07-11T13:26:31.298Z,34.30
2023-07-11T13:29:07.427Z,33.60
2023-07-11T13:31:39.954Z,34.50
2023-07-11T13:34:14.851Z,35.20
2023-07-11T13:36:48.209Z,33.80
2023-07-11T13:39:22.019Z,31.10
2023-07-11T13:41:55.700Z,33.90
2023-07-11T13:44:31.260Z,35.20
2023-07-11T13:47:03.170Z,33.80
2023-07-11T13:49:38.840Z,35.80
2023-07-11T13:52:21.049Z,28.50
2023-07-11T13:54:55.474Z,29.80
2023-07-11T13:57:24.490Z,31.40
2023-07-11T14:00:07.481Z,30.80
2023-07-11T14:02:44.414Z,30.00
2023-07-11T14:05:24.013Z,31.90
2023-07-11T14:07:55.837Z,32.40
2023-07-11T14:10:27.232Z,31.10
2023-07-11T14:12:56.573Z,31.40
2023-07-11T14:15:27.661Z,29.80
2023-07-11T14:18:00.004Z,29.80
2023-07-11T14:20:30.322Z,29.40
2023-07-11T14:22:59.307Z,27.80
2023-07-11T14:25:30.184Z,28.90
2023-07-11T14:27:59.104Z,28.00
2023-07-11T14:30:29.252Z,28.80
2023-07-11T14:32:59.210Z,30.60
2023-07-11T14:35:29.428Z,28.70
2023-07-11T14:37:58.134Z,30.30
2023-07-11T14:40:29.730Z,29.30
2023-07-11T14:42:58.405Z,29.60
2023-07-11T14:45:28.960Z,32.20
2023-07-11T14:47:58.907Z,30.00
2023-07-11T14:50:29.753Z,28.40
2023-07-11T14:53:05.411Z,27.10
2023-07-11T14:58:09.818Z,29.10
2023-07-11T15:00:38.720Z,29.70
2023-07-11T15:03:22.947Z,29.60
2023-07-11T15:06:01.165Z,31.00
2023-07-11T15:16:29.361Z,29.30
2023-07-11T15:18:59.303Z,30.10
2023-07-11T15:21:28.013Z,30.50
2023-07-11T15:23:59.356Z,32.40
2023-07-11T15:26:27.847Z,32.50
2023-07-11T15:28:56.527Z,31.40
2023-07-11T15:31:25.036Z,31.80
2023-07-11T15:33:53.591Z,30.10
2023-07-11T15:36:23.521Z,30.70
2023-07-11T15:38:52.672Z,31.40
2023-07-11T15:41:21.505Z,30.90
2023-07-11T15:43:50.032Z,31.20
2023-07-11T15:46:22.964Z,30.50
2023-07-11T15:48:54.282Z,30.00
2023-07-11T15:51:24.524Z,30.70
2023-07-11T15:53:53.698Z,30.50
2023-07-11T15:56:22.323Z,30.70
2023-07-11T15:58:50.916Z,31.30
2023-07-11T16:01:19.520Z,30.30
2023-07-11T16:03:48.269Z,31.90
2023-07-11T16:06:19.196Z,31.50
2023-07-11T16:08:49.196Z,31.30
2023-07-11T16:11:18.589Z,33.00
2023-07-11T16:13:47.601Z,30.90
2023-07-11T16:16:20.923Z,34.00
2023-07-11T16:18:49.600Z,32.40
2023-07-11T16:21:18.811Z,33.40
2023-07-11T16:23:48.731Z,33.10
2023-07-11T16:26:25.832Z,31.80
2023-07-11T16:28:54.725Z,31.00
2023-07-11T16:31:26.563Z,32.60
2023-07-11T16:33:55.652Z,30.20
2023-07-11T16:36:24.592Z,33.30
2023-07-11T16:38:54.455Z,31.90
2023-07-11T16:41:23.498Z,34.20
2023-07-11T16:43:53.999Z,34.10
2023-07-11T16:46:22.665Z,34.40
2023-07-11T16:48:51.237Z,32.80
2023-07-11T16:51:26.217Z,35.50
2023-07-11T16:53:56.587Z,34.20
2023-07-11T16:56:25.087Z,37.60
2023-07-11T16:58:53.609Z,41.80
2023-07-11T17:01:22.944Z,39.10
2023-07-11T17:03:51.793Z,40.80
2023-07-11T17:06:27.261Z,43.80
2023-07-11T17:08:58.771Z,45.20
2023-07-11T17:11:27.753Z,43.90
2023-07-11T17:13:56.654Z,45.50
2023-07-11T17:16:32.080Z,48.40
2023-07-11T17:19:02.613Z,54.00
2023-07-11T17:21:31.608Z,52.60
2023-07-11T17:24:02.013Z,47.60
2023-07-11T17:26:30.846Z,44.50
2023-07-11T17:29:01.156Z,44.40
2023-07-11T17:31:31.535Z,56.30
2023-07-11T17:34:00.592Z,43.30
2023-07-11T17:36:29.329Z,46.70
2023-07-11T17:38:58.535Z,50.30
2023-07-11T17:41:29.090Z,46.00
2023-07-11T17:44:04.975Z,47.80
2023-07-11T17:49:07.304Z,49.90
2023-07-11T17:51:36.312Z,56.90
2023-07-11T17:54:05.565Z,59.60
2023-07-11T17:56:52.211Z,64.60
2023-07-11T17:59:25.666Z,61.40
2023-07-11T18:01:54.411Z,63.90
2023-07-11T18:04:23.073Z,67.90
2023-07-11T18:06:51.673Z,74.00
2023-07-11T18:09:20.246Z,70.80
2023-07-11T18:11:50.155Z,70.10
2023-07-11T18:14:18.781Z,72.00
2023-07-11T18:16:47.341Z,75.10
2023-07-11T18:19:15.816Z,78.90
2023-07-11T18:21:44.320Z,80.00
2023-07-11T18:24:12.866Z,78.20
2023-07-11T18:26:42.327Z,76.80
2023-07-11T18:29:12.821Z,80.40
2023-07-11T18:31:41.393Z,83.00
2023-07-11T18:34:10.186Z,78.90
2023-07-11T18:36:38.708Z,84.40
2023-07-11T18:39:07.280Z,81.40
2023-07-11T18:41:36.025Z,90.10
2023-07-11T18:44:04.524Z,91.10
2023-07-11T18:46:34.479Z,82.80
2023-07-11T18:49:03.060Z,85.90
2023-07-11T18:51:31.587Z,78.50
2023-07-11T18:54:00.091Z,81.80
2023-07-11T18:56:29.003Z,89.90
2023-07-11T18:58:57.539Z,84.90
2023-07-11T19:01:26.310Z,92.60
2023-07-11T19:03:56.211Z,87.30
2023-07-11T19:06:24.754Z,88.50
2023-07-11T19:08:53.263Z,89.10
2023-07-11T19:11:21.999Z,93.60
2023-07-11T19:13:50.486Z,91.40
2023-07-11T19:16:22.676Z,91.00
2023-07-11T19:18:51.604Z,95.70
2023-07-11T19:21:21.662Z,96.50
2023-07-11T19:23:50.283Z,97.40
2023-07-11T19:26:20.826Z,96.60
2023-07-11T19:28:49.318Z,99.90
2023-07-11T19:31:18.965Z,99.90
2023-07-11T19:33:47.505Z,99.90
2023-07-11T19:36:19.007Z,99.90
2023-07-11T19:38:48.900Z,99.90
2023-07-11T19:41:20.762Z,99.90
2023-07-11T19:43:50.191Z,99.90
2023-07-11T19:46:22.463Z,99.90
2023-07-11T19:48:51.912Z,99.90
2023-07-11T19:51:20.721Z,99.90
2023-07-11T19:53:50.586Z,99.90
2023-07-11T19:56:23.786Z,99.90
2023-07-11T19:58:52.905Z,99.90
2023-07-11T20:01:21.564Z,99.90
2023-07-11T20:03:52.380Z,99.90
2023-07-11T20:06:24.330Z,99.90
2023-07-11T20:08:54.395Z,99.90
2023-07-11T20:11:22.986Z,99.90
2023-07-11T20:13:51.813Z,99.90
2023-07-11T20:16:23.809Z,99.90
2023-07-11T20:18:53.091Z,99.90
2023-07-11T20:21:24.282Z,99.90
2023-07-11T20:23:56.970Z,99.90
2023-07-11T20:26:28.058Z,99.90
2023-07-11T20:28:58.980Z,99.90
2023-07-11T20:31:28.610Z,99.90
2023-07-11T20:33:57.451Z,99.90
2023-07-11T20:36:28.382Z,99.90
2023-07-11T20:38:59.585Z,99.90
2023-07-11T20:41:28.683Z,99.90
2023-07-11T20:44:00.893Z,99.90
2023-07-11T20:46:30.268Z,99.90
2023-07-11T20:49:01.703Z,99.90
2023-07-11T20:51:30.892Z,99.90
2023-07-11T20:54:00.979Z,99.90
2023-07-11T20:56:30.551Z,99.90
2023-07-11T20:58:59.846Z,99.90
2023-07-11T21:01:28.541Z,99.90
2023-07-11T21:03:57.349Z,99.90
2023-07-11T21:06:32.178Z,99.90
2023-07-11T21:09:03.290Z,99.90
2023-07-11T21:11:32.210Z,99.90
2023-07-11T21:14:01.240Z,99.90
2023-07-11T21:16:34.964Z,99.90
2023-07-11T21:19:05.238Z,99.90
2023-07-11T21:21:35.106Z,99.90
2023-07-11T21:24:05.673Z,99.90
2023-07-11T21:26:36.029Z,99.90
2023-07-11T21:29:08.190Z,99.90
2023-07-11T21:31:37.515Z,99.90
2023-07-11T21:34:06.835Z,99.90
2023-07-11T21:36:36.772Z,99.90
2023-07-11T21:39:07.942Z,99.90
2023-07-11T21:41:37.045Z,99.90
2023-07-11T21:44:05.894Z,99.90
2023-07-11T21:46:36.970Z,99.90
2023-07-11T21:49:05.517Z,99.90
2023-07-11T21:51:34.270Z,99.90
2023-07-11T21:54:04.307Z,99.90
2023-07-11T21:56:34.401Z,99.90
2023-07-11T21:59:03.303Z,99.90
2023-07-11T22:01:32.111Z,99.90
2023-07-11T22:04:01.931Z,99.90
2023-07-11T22:06:32.112Z,99.90
2023-07-11T22:09:00.924Z,99.90
2023-07-11T22:11:29.972Z,99.90
2023-07-11T22:13:59.930Z,99.90
2023-07-11T22:16:31.079Z,99.90
2023-07-11T22:19:00.090Z,99.90
2023-07-11T22:21:29.136Z,99.90
2023-07-11T22:24:00.388Z,99.90
2023-07-11T22:26:32.071Z,99.90
2023-07-11T22:29:03.354Z,99.90
2023-07-11T22:31:32.371Z,99.90
2023-07-11T22:34:01.024Z,99.90
2023-07-11T22:36:29.607Z,99.90
2023-07-11T22:38:58.160Z,99.90
2023-07-11T22:41:26.734Z,99.90
2023-07-11T22:43:55.312Z,99.90
2023-07-11T22:46:25.504Z,99.90
2023-07-11T22:48:54.259Z,99.90
2023-07-11T22:51:22.785Z,99.90
2023-07-11T22:53:51.288Z,99.90
2023-07-11T22:56:22.613Z,99.90
2023-07-11T22:58:52.839Z,99.90
2023-07-11T23:01:24.666Z,99.90
2023-07-11T23:03:53.287Z,99.90
2023-07-11T23:06:25.721Z,99.90
2023-07-11T23:08:55.273Z,99.90
2023-07-11T23:11:26.044Z,99.90
2023-07-11T23:13:54.722Z,99.90
2023-07-11T23:16:29.794Z,99.90
2023-07-11T23:19:01.042Z,99.90
2023-07-11T23:21:30.551Z,99.90
2023-07-11T23:23:59.589Z,99.90
2023-07-11T23:26:29.943Z,99.90
2023-07-11T23:28:58.779Z,99.90
2023-07-11T23:31:28.673Z,99.90
2023-07-11T23:33:57.258Z,99.90
2023-07-11T23:36:27.743Z,99.90
2023-07-11T23:38:57.695Z,99.90
2023-07-11T23:41:26.652Z,99.90
2023-07-11T23:43:55.230Z,99.90
2023-07-11T23:46:29.622Z,99.90
2023-07-11T23:48:59.154Z,99.90
2023-07-11T23:51:30.766Z,99.90
2023-07-11T23:53:59.338Z,99.90
2023-07-11T23:56:30.722Z,99.90
2023-07-11T23:59:00.460Z,99.90
